Time;durP1;ratioP1;P1;durP2;ratioP2;P2;SDS_P1;SDS_P2;PMS_P1;PMS_P2;Temp;Humidity;BMP_temperature;BMP_pressure;BME280_temperature;BME280_humidity;BME280_pressure;Samples;Min_cycle;Max_cycle;Signal;HPM_P1;HPM_P2
2021/09/21 00:01:59;;;;;;;;;20.67;20.67;19.60;52.90;;;;;;5015003;28;8811;-63
2021/09/21 00:04:27;;;;;;;;;19.00;19.00;19.60;51.70;;;;;;5014598;28;9526;-64
2021/09/21 00:06:54;;;;;;;;;20.33;20.33;19.60;51.70;;;;;;5014746;28;8887;-65
2021/09/21 00:09:21;;;;;;;;;22.00;22.00;19.50;52.00;;;;;;5013839;28;9593;-65
2021/09/21 00:11:48;;;;;;;;;20.00;20.00;19.50;52.30;;;;;;5014688;28;8788;-64
2021/09/21 00:14:14;;;;;;;;;19.00;19.00;19.70;52.00;;;;;;5014933;28;8783;-64
2021/09/21 00:16:40;;;;;;;;;20.00;20.00;19.80;51.70;;;;;;5014662;28;8760;-64
2021/09/21 00:19:06;;;;;;;;;19.33;19.33;19.80;51.50;;;;;;5014614;28;8768;-64
2021/09/21 00:21:31;;;;;;;;;20.00;20.00;19.80;51.50;;;;;;5014560;28;8894;-64
2021/09/21 00:23:57;;;;;;;;;20.00;20.00;19.80;51.40;;;;;;5014492;28;8826;-64
2021/09/21 00:26:23;;;;;;;;;17.00;17.00;19.70;51.60;;;;;;5013607;28;8842;-62
2021/09/21 00:28:49;;;;;;;;;18.67;18.67;19.60;51.70;;;;;;5014568;28;8775;-64
2021/09/21 00:31:15;;;;;;;;;18.00;18.00;19.60;51.80;;;;;;5014677;28;8788;-64
2021/09/21 00:33:52;;;;;;;;;21.00;21.00;19.60;51.90;;;;;;5014726;28;8819;-64
2021/09/21 00:36:19;;;;;;;;;21.33;21.33;19.60;52.00;;;;;;5013578;28;8895;-62
2021/09/21 00:38:45;;;;;;;;;23.67;23.67;19.70;51.80;;;;;;5016161;28;8813;-64
2021/09/21 00:41:13;;;;;;;;;18.67;18.67;19.70;51.70;;;;;;5018449;28;8772;-65
2021/09/21 00:43:39;;;;;;;;;20.33;20.33;19.60;51.90;;;;;;5018265;28;8841;-64
2021/09/21 00:46:05;;;;;;;;;19.00;19.00;19.60;52.00;;;;;;5017267;28;8780;-62
2021/09/21 00:48:31;;;;;;;;;19.00;19.00;19.60;51.90;;;;;;5017797;28;8776;-65
2021/09/21 00:50:57;;;;;;;;;22.33;22.33;19.70;51.60;;;;;;5018097;28;8785;-63
2021/09/21 00:53:26;;;;;;;;;18.33;18.33;19.70;51.40;;;;;;5018101;28;8799;-64
2021/09/21 00:55:53;;;;;;;;;16.00;16.00;19.80;51.60;;;;;;5017704;28;8898;-62
2021/09/21 00:58:19;;;;;;;;;20.33;19.67;19.80;51.50;;;;;;5017875;28;8912;-63
2021/09/21 01:00:45;;;;;;;;;18.00;18.00;19.80;51.40;;;;;;5018068;28;8784;-63
2021/09/21 01:03:10;;;;;;;;;20.33;20.33;19.70;51.70;;;;;;5018146;28;8792;-64
2021/09/21 01:05:36;;;;;;;;;20.67;20.67;19.60;51.80;;;;;;5017590;28;8844;-64
2021/09/21 01:08:03;;;;;;;;;18.33;18.33;19.70;51.80;;;;;;5016743;28;8831;-64
2021/09/21 01:10:31;;;;;;;;;19.00;19.00;19.70;51.80;;;;;;5017799;28;8887;-64
2021/09/21 01:12:57;;;;;;;;;20.00;20.00;19.80;51.60;;;;;;5018177;28;8906;-64
2021/09/21 01:15:24;;;;;;;;;19.67;19.67;19.80;51.50;;;;;;5017836;28;8776;-63
2021/09/21 01:17:51;;;;;;;;;22.33;22.33;19.80;51.70;;;;;;5016902;28;8797;-64
2021/09/21 01:20:18;;;;;;;;;18.00;18.00;19.60;51.60;;;;;;5017997;28;8846;-64
2021/09/21 01:22:44;;;;;;;;;17.67;17.67;19.60;52.00;;;;;;5017744;28;8756;-65
2021/09/21 01:25:11;;;;;;;;;20.33;20.33;19.50;52.30;;;;;;5017851;28;9645;-61
2021/09/21 01:27:37;;;;;;;;;20.33;20.33;19.40;52.60;;;;;;5016630;28;8780;-63
2021/09/21 01:30:06;;;;;;;;;20.33;20.33;19.50;52.50;;;;;;5017815;28;8760;-63
2021/09/21 01:32:31;;;;;;;;;17.67;17.67;19.50;52.30;;;;;;5017744;28;8780;-62
2021/09/21 01:35:00;;;;;;;;;19.00;19.00;19.50;52.40;;;;;;5017825;28;8865;-63
2021/09/21 01:37:27;;;;;;;;;20.00;20.00;19.60;52.50;;;;;;5016284;28;9222;-63
2021/09/21 01:39:53;;;;;;;;;19.00;19.00;19.50;52.40;;;;;;5017680;28;8851;-63
2021/09/21 01:42:19;;;;;;;;;18.00;17.00;19.60;52.40;;;;;;5017527;28;8845;-63
2021/09/21 01:44:45;;;;;;;;;20.00;20.00;19.50;52.50;;;;;;5017469;28;8811;-62
2021/09/21 01:47:11;;;;;;;;;14.00;14.00;19.50;52.60;;;;;;5016115;28;8792;-62
2021/09/21 01:52:21;;;;;;;;;19.33;19.33;19.60;52.20;;;;;;5017181;28;9438;-63
2021/09/21 01:59:57;;;;;;;;;18.33;18.33;19.70;52.00;;;;;;5017110;28;8752;-64
2021/09/21 02:02:23;;;;;;;;;20.00;20.00;19.70;52.00;;;;;;5016916;28;8787;-63
2021/09/21 02:04:49;;;;;;;;;20.00;20.00;19.70;52.20;;;;;;5016718;28;8875;-63
2021/09/21 02:07:14;;;;;;;;;22.00;22.00;19.60;52.10;;;;;;5015869;28;8816;-64
2021/09/21 02:09:40;;;;;;;;;18.00;18.00;19.60;52.20;;;;;;5016795;28;8791;-63
2021/09/21 02:12:06;;;;;;;;;20.00;20.00;19.60;52.30;;;;;;5016755;28;8776;-63
2021/09/21 02:14:32;;;;;;;;;23.00;23.00;19.60;52.30;;;;;;5016951;28;8896;-64
2021/09/21 02:16:58;;;;;;;;;23.33;23.33;19.50;52.50;;;;;;5015767;28;8815;-64
2021/09/21 02:19:24;;;;;;;;;23.33;23.33;19.50;52.50;;;;;;5016616;28;9464;-63
2021/09/21 02:21:51;;;;;;;;;19.67;19.00;19.30;52.80;;;;;;5016591;28;8760;-64
2021/09/21 02:24:22;;;;;;;;;20.33;20.33;19.30;53.00;;;;;;5016666;28;8897;-64
2021/09/21 02:26:48;;;;;;;;;16.67;16.67;19.40;52.90;;;;;;5015703;28;8804;-64
2021/09/21 02:29:14;;;;;;;;;21.67;21.67;19.50;52.80;;;;;;5014532;28;8792;-64
2021/09/21 02:31:40;;;;;;;;;18.00;18.00;19.50;52.70;;;;;;5016387;28;8787;-64
2021/09/21 02:34:06;;;;;;;;;23.00;23.00;19.40;52.60;;;;;;5016444;28;8812;-64
2021/09/21 02:36:32;;;;;;;;;19.67;19.67;19.40;52.90;;;;;;5015185;28;8788;-64
2021/09/21 02:38:58;;;;;;;;;21.33;21.33;19.40;52.70;;;;;;5016824;28;8788;-63
2021/09/21 02:41:24;;;;;;;;;18.00;18.00;19.50;52.80;;;;;;5016246;28;8772;-64
2021/09/21 02:43:50;;;;;;;;;16.33;16.33;19.40;52.70;;;;;;5016406;28;8768;-63
2021/09/21 02:46:16;;;;;;;;;20.33;20.33;19.40;52.70;;;;;;5015312;28;8831;-63
2021/09/21 02:48:42;;;;;;;;;18.00;18.00;19.30;52.90;;;;;;5016369;28;8784;-63
2021/09/21 02:51:08;;;;;;;;;20.67;20.67;19.20;53.10;;;;;;5015964;28;9419;-63
2021/09/21 02:53:33;;;;;;;;;19.33;19.33;19.30;52.90;;;;;;5015974;28;8802;-63
2021/09/21 02:55:59;;;;;;;;;18.67;18.67;19.20;53.00;;;;;;5014520;28;8841;-63
2021/09/21 02:58:26;;;;;;;;;14.33;14.33;19.30;53.00;;;;;;5015892;28;8866;-63
2021/09/21 03:00:56;;;;;;;;;19.33;19.33;19.30;53.10;;;;;;5015569;28;8780;-64
2021/09/21 03:03:28;;;;;;;;;19.67;19.67;19.30;53.10;;;;;;5016031;28;9447;-63
2021/09/21 03:05:59;;;;;;;;;19.00;19.00;19.30;53.00;;;;;;5014344;28;8901;-63
2021/09/21 03:08:28;;;;;;;;;16.00;16.00;19.30;53.00;;;;;;5015776;28;8779;-63
2021/09/21 03:18:39;;;;;;;;;17.67;17.67;19.20;53.20;;;;;;5015613;28;8756;-64
2021/09/21 03:21:06;;;;;;;;;19.00;19.00;19.10;53.70;;;;;;5015692;28;9466;-63
2021/09/21 03:23:32;;;;;;;;;17.67;17.67;19.10;54.50;;;;;;5015437;28;8783;-62
2021/09/21 03:25:57;;;;;;;;;16.00;16.00;19.10;53.40;;;;;;5015300;28;8897;-64
2021/09/21 03:28:23;;;;;;;;;13.00;13.00;19.20;53.50;;;;;;5015326;28;8772;-64
2021/09/21 03:30:49;;;;;;;;;17.00;17.00;19.20;53.40;;;;;;5015263;28;8792;-65
2021/09/21 03:33:16;;;;;;;;;18.00;18.00;19.20;53.40;;;;;;5015201;28;8831;-64
2021/09/21 03:35:41;;;;;;;;;18.00;18.00;19.30;53.20;;;;;;5015146;28;8816;-63
2021/09/21 03:38:07;;;;;;;;;21.00;21.00;19.30;53.10;;;;;;5014745;28;8776;-63
2021/09/21 03:40:34;;;;;;;;;18.33;18.33;19.40;52.80;;;;;;5023207;28;9573;-64
2021/09/21 03:43:00;;;;;;;;;20.00;20.00;19.30;52.80;;;;;;5020191;28;8788;-62
2021/09/21 03:45:26;;;;;;;;;20.00;19.00;19.30;53.00;;;;;;5024268;28;8909;-62
2021/09/21 03:47:54;;;;;;;;;18.00;18.00;19.40;53.10;;;;;;5035084;28;9741;-63
2021/09/21 03:50:21;;;;;;;;;18.67;18.67;19.30;53.00;;;;;;5034996;28;8784;-63
2021/09/21 03:52:47;;;;;;;;;18.00;18.00;19.30;54.10;;;;;;5034741;28;8773;-62
2021/09/21 03:55:14;;;;;;;;;17.67;17.67;19.30;53.00;;;;;;5034921;28;8788;-63
2021/09/21 03:57:40;;;;;;;;;19.33;19.33;19.30;53.10;;;;;;5034923;28;9455;-62
2021/09/21 04:00:06;;;;;;;;;17.33;17.33;19.30;52.90;;;;;;5034636;28;8765;-62
2021/09/21 04:02:32;;;;;;;;;20.33;20.33;19.20;53.10;;;;;;5034531;28;8769;-63
2021/09/21 04:04:58;;;;;;;;;17.00;15.67;19.10;53.40;;;;;;5034382;28;8900;-62
2021/09/21 04:07:24;;;;;;;;;22.33;22.33;19.00;53.70;;;;;;5034584;28;8786;-63
2021/09/21 04:09:49;;;;;;;;;15.33;15.33;19.00;53.70;;;;;;5034542;28;8777;-64
2021/09/21 04:12:16;;;;;;;;;22.00;22.00;19.00;54.00;;;;;;5034184;28;8816;-64
2021/09/21 04:14:41;;;;;;;;;20.33;20.33;19.00;54.10;;;;;;5025268;28;9601;-64
2021/09/21 04:17:07;;;;;;;;;16.67;16.67;19.00;53.90;;;;;;5021984;28;8884;-64
2021/09/21 04:19:33;;;;;;;;;16.33;16.33;19.10;53.90;;;;;;5022703;28;8906;-64
2021/09/21 04:21:59;;;;;;;;;17.00;17.00;19.10;53.70;;;;;;5023171;28;8841;-64
2021/09/21 04:24:25;;;;;;;;;19.00;19.00;19.20;53.70;;;;;;5034528;28;8916;-63
2021/09/21 04:26:50;;;;;;;;;19.33;19.33;19.20;53.70;;;;;;5034344;28;9552;-63
2021/09/21 04:29:16;;;;;;;;;14.00;14.00;19.20;54.60;;;;;;5028886;28;8812;-63
2021/09/21 04:31:44;;;;;;;;;19.33;19.33;19.30;53.50;;;;;;5014519;28;8760;-62
2021/09/21 04:34:14;;;;;;;;;23.67;23.67;19.30;53.30;;;;;;5014603;28;8900;-61
2021/09/21 04:36:39;;;;;;;;;20.33;20.33;19.30;53.10;;;;;;5014697;28;8790;-65
2021/09/21 04:39:05;;;;;;;;;21.67;21.67;19.20;53.30;;;;;;5016341;28;8802;-60
2021/09/21 04:41:31;;;;;;;;;20.67;20.67;19.30;53.40;;;;;;5027574;28;8780;-61
2021/09/21 04:43:59;;;;;;;;;23.00;22.67;19.30;53.20;;;;;;5023825;28;8782;-60
2021/09/21 04:46:25;;;;;;;;;23.00;23.00;19.40;53.10;;;;;;5021462;28;9464;-60
2021/09/21 04:48:51;;;;;;;;;21.67;21.33;19.50;53.10;;;;;;5022683;28;8936;-60
2021/09/21 04:51:17;;;;;;;;;21.00;21.00;19.50;52.90;;;;;;5013475;28;8776;-60
2021/09/21 04:53:43;;;;;;;;;25.33;25.00;19.40;53.00;;;;;;5014330;28;8775;-61
2021/09/21 04:56:09;;;;;;;;;26.00;26.00;19.30;53.20;;;;;;5024926;28;8809;-61
2021/09/21 04:58:35;;;;;;;;;27.33;27.33;19.40;53.30;;;;;;5020909;28;8809;-60
2021/09/21 05:01:01;;;;;;;;;25.33;25.00;19.30;53.30;;;;;;5019521;28;8788;-60
2021/09/21 05:03:26;;;;;;;;;21.00;21.00;19.40;53.20;;;;;;5013426;28;8938;-59
2021/09/21 05:05:52;;;;;;;;;26.67;26.67;19.30;53.20;;;;;;4993642;28;8872;-60
2021/09/21 05:08:18;;;;;;;;;23.67;23.67;19.30;53.40;;;;;;4994775;28;9473;-60
2021/09/21 05:10:44;;;;;;;;;25.67;25.67;19.30;53.40;;;;;;4993228;28;8809;-61
2021/09/21 05:13:10;;;;;;;;;25.67;25.67;19.40;53.40;;;;;;5010789;28;8799;-62
2021/09/21 05:15:36;;;;;;;;;20.00;20.00;19.40;53.10;;;;;;5014340;28;9517;-61
2021/09/21 05:18:02;;;;;;;;;23.33;23.33;19.30;53.00;;;;;;5014001;28;8772;-60
2021/09/21 05:20:28;;;;;;;;;22.33;22.33;19.40;53.30;;;;;;5008520;28;8791;-61
2021/09/21 05:22:54;;;;;;;;;21.00;21.00;19.50;53.30;;;;;;4994330;28;8786;-61
2021/09/21 05:25:22;;;;;;;;;20.33;20.33;19.50;53.30;;;;;;4996547;28;8806;-61
2021/09/21 05:27:49;;;;;;;;;24.00;24.00;19.50;53.10;;;;;;4997904;28;8797;-61
2021/09/21 05:30:16;;;;;;;;;21.00;21.00;19.50;53.00;;;;;;4996986;28;9500;-61
2021/09/21 05:32:42;;;;;;;;;24.00;24.00;19.50;53.20;;;;;;4997823;28;8778;-61
2021/09/21 05:35:08;;;;;;;;;30.33;30.33;19.50;53.00;;;;;;4997686;28;8817;-61
2021/09/21 05:37:34;;;;;;;;;29.33;29.33;19.60;52.90;;;;;;4997808;28;8777;-60
2021/09/21 05:40:00;;;;;;;;;25.33;25.33;19.60;53.00;;;;;;4998005;28;8770;-60
2021/09/21 05:42:25;;;;;;;;;29.00;29.00;19.40;53.10;;;;;;4997770;28;9459;-60
2021/09/21 05:44:52;;;;;;;;;26.67;26.67;19.30;53.30;;;;;;4997853;28;8806;-60
2021/09/21 05:47:18;;;;;;;;;23.33;23.33;19.50;53.30;;;;;;4997678;28;8763;-60
2021/09/21 05:49:44;;;;;;;;;27.67;27.67;19.50;53.20;;;;;;4997511;28;8805;-60
2021/09/21 05:52:10;;;;;;;;;19.33;19.33;19.40;53.20;;;;;;4997592;28;8782;-60
2021/09/21 05:54:35;;;;;;;;;22.67;22.67;19.40;52.90;;;;;;4990117;28;8806;-59
2021/09/21 05:57:01;;;;;;;;;23.33;23.33;19.50;52.90;;;;;;4996510;28;8833;-59
2021/09/21 05:59:27;;;;;;;;;23.00;23.00;19.50;52.60;;;;;;4996329;28;8798;-59
2021/09/21 06:01:53;;;;;;;;;23.33;23.33;19.60;52.50;;;;;;4996434;28;8779;-60
2021/09/21 06:04:18;;;;;;;;;26.33;26.33;19.50;52.60;;;;;;5002972;28;8860;-60
2021/09/21 06:06:44;;;;;;;;;22.67;22.67;19.50;52.90;;;;;;5015561;28;8780;-59
2021/09/21 06:09:10;;;;;;;;;24.67;24.67;19.40;52.80;;;;;;5015824;28;8803;-60
2021/09/21 06:11:37;;;;;;;;;25.00;25.00;19.30;53.00;;;;;;5015140;28;8780;-60
2021/09/21 06:14:05;;;;;;;;;23.00;23.00;19.30;52.80;;;;;;5015775;28;8783;-60
2021/09/21 06:16:31;;;;;;;;;24.33;24.33;19.30;53.10;;;;;;5015156;28;8806;-59
2021/09/21 06:18:58;;;;;;;;;24.00;24.00;19.50;53.10;;;;;;5015613;28;8764;-60
2021/09/21 06:21:25;;;;;;;;;21.00;21.00;19.60;53.00;;;;;;5015244;28;8772;-60
2021/09/21 06:23:51;;;;;;;;;14.67;14.67;19.80;52.60;;;;;;5015609;28;8790;-60
2021/09/21 06:26:18;;;;;;;;;22.67;22.67;19.80;51.80;;;;;;5015059;28;8820;-59
2021/09/21 06:28:44;;;;;;;;;21.67;21.67;20.00;51.70;;;;;;5013194;28;8827;-60
2021/09/21 06:31:10;;;;;;;;;23.00;23.00;20.10;51.40;;;;;;5015118;28;8788;-60
2021/09/21 06:33:36;;;;;;;;;22.67;22.67;20.00;51.10;;;;;;5015649;28;8843;-60
2021/09/21 06:36:02;;;;;;;;;17.00;17.00;20.00;51.10;;;;;;5013553;28;8796;-60
2021/09/21 06:38:28;;;;;;;;;17.00;17.00;20.00;51.20;;;;;;5015404;28;8772;-60
2021/09/21 06:40:54;;;;;;;;;21.00;21.00;19.90;51.00;;;;;;5015327;28;8784;-60
2021/09/21 06:43:20;;;;;;;;;20.33;20.33;19.60;51.10;;;;;;5014887;28;8853;-60
2021/09/21 06:45:45;;;;;;;;;17.67;17.67;19.60;51.30;;;;;;5014602;28;9461;-61
2021/09/21 06:48:11;;;;;;;;;17.33;17.33;19.60;51.70;;;;;;5014244;28;8760;-60
2021/09/21 06:50:38;;;;;;;;;16.00;16.00;19.60;52.00;;;;;;5014334;28;8764;-60
2021/09/21 06:53:04;;;;;;;;;20.67;20.00;19.50;51.90;;;;;;5015681;28;8795;-60
2021/09/21 06:55:29;;;;;;;;;17.33;17.33;19.70;51.50;;;;;;5015987;28;8756;-60
2021/09/21 06:57:56;;;;;;;;;21.00;19.33;19.80;51.30;;;;;;5015939;28;8886;-60
2021/09/21 07:00:22;;;;;;;;;23.67;23.67;19.90;51.20;;;;;;5016078;28;9422;-60
2021/09/21 07:02:53;;;;;;;;;20.00;20.00;19.90;50.70;;;;;;5015701;28;8906;-60
2021/09/21 07:05:21;;;;;;;;;20.00;20.00;19.90;50.60;;;;;;5014530;28;8848;-60
2021/09/21 07:07:49;;;;;;;;;20.00;20.00;19.90;50.20;;;;;;5015762;28;8776;-61
2021/09/21 07:10:16;;;;;;;;;19.33;18.67;19.90;50.20;;;;;;5015914;28;8768;-61
2021/09/21 07:12:43;;;;;;;;;19.33;19.00;20.00;50.10;;;;;;5015546;28;8795;-61
2021/09/21 07:15:10;;;;;;;;;22.00;22.00;20.10;50.10;;;;;;5015535;28;8806;-61
2021/09/21 07:17:35;;;;;;;;;21.67;21.67;20.30;49.90;;;;;;5014638;28;8843;-60
2021/09/21 07:20:02;;;;;;;;;21.00;21.00;20.20;49.30;;;;;;5015458;28;8769;-60
2021/09/21 07:22:29;;;;;;;;;21.00;21.00;20.20;48.80;;;;;;5015464;28;8756;-61
2021/09/21 07:24:55;;;;;;;;;21.33;21.33;20.10;48.70;;;;;;5015258;28;8918;-61
2021/09/21 07:27:21;;;;;;;;;22.00;22.00;20.10;49.00;;;;;;5014368;28;8906;-60
2021/09/21 07:29:47;;;;;;;;;21.00;21.00;20.20;49.10;;;;;;5015552;28;8807;-61
2021/09/21 07:32:12;;;;;;;;;23.00;23.00;20.30;48.80;;;;;;5015511;28;9462;-61
2021/09/21 07:34:38;;;;;;;;;17.67;17.67;20.30;48.80;;;;;;5015507;28;8840;-60
2021/09/21 07:37:04;;;;;;;;;21.00;21.00;20.30;48.20;;;;;;5014220;28;8788;-60
2021/09/21 07:39:30;;;;;;;;;23.00;23.00;20.10;48.30;;;;;;5015193;28;8768;-60
2021/09/21 07:41:56;;;;;;;;;24.67;24.67;20.10;48.50;;;;;;5015189;28;8894;-60
2021/09/21 07:44:22;;;;;;;;;23.67;23.67;20.20;48.70;;;;;;5015027;28;8815;-61
2021/09/21 07:46:48;;;;;;;;;14.00;14.00;20.20;47.90;;;;;;5014176;28;8808;-61
2021/09/21 07:49:14;;;;;;;;;22.67;22.67;20.00;48.50;;;;;;5014071;28;8779;-60
2021/09/21 07:51:41;;;;;;;;;19.00;19.00;20.00;48.70;;;;;;5015000;28;8764;-60
2021/09/21 07:54:08;;;;;;;;;22.00;22.00;20.10;48.70;;;;;;5015143;28;8798;-60
2021/09/21 07:56:35;;;;;;;;;24.67;24.67;20.10;48.40;;;;;;5013867;28;8796;-60
2021/09/21 07:59:03;;;;;;;;;21.67;21.00;20.30;48.30;;;;;;5015011;28;8771;-60
2021/09/21 08:01:29;;;;;;;;;24.33;24.33;20.20;47.90;;;;;;5014664;28;8795;-60
2021/09/21 08:03:56;;;;;;;;;23.67;23.67;20.30;48.90;;;;;;5014647;28;8893;-60
2021/09/21 08:06:25;;;;;;;;;21.67;21.67;20.20;48.30;;;;;;5014000;28;8804;-60
2021/09/21 08:08:51;;;;;;;;;21.00;21.00;20.40;48.20;;;;;;5014995;28;9643;-60
2021/09/21 08:11:17;;;;;;;;;20.33;20.33;20.50;47.60;;;;;;5014767;28;8779;-60
2021/09/21 08:13:43;;;;;;;;;24.00;24.00;20.50;47.20;;;;;;5014622;28;8791;-60
2021/09/21 08:16:09;;;;;;;;;29.67;29.67;20.60;47.20;;;;;;5013182;28;8804;-60
2021/09/21 08:18:35;;;;;;;;;33.33;31.67;20.50;46.70;;;;;;5014560;28;8768;-60
2021/09/21 08:21:02;;;;;;;;;34.00;33.00;20.60;46.90;;;;;;5014516;28;8811;-60
2021/09/21 08:23:28;;;;;;;;;36.00;33.67;20.70;47.00;;;;;;5014759;28;9573;-60
2021/09/21 08:25:54;;;;;;;;;28.67;28.67;20.70;46.50;;;;;;5013739;28;8820;-61
2021/09/21 08:28:20;;;;;;;;;26.67;26.67;20.80;46.50;;;;;;5014833;28;8768;-60
2021/09/21 08:30:46;;;;;;;;;22.67;22.67;20.70;46.50;;;;;;5014776;28;8772;-60
2021/09/21 08:33:12;;;;;;;;;22.67;21.67;20.60;46.60;;;;;;5014672;28;8849;-60
2021/09/21 08:35:38;;;;;;;;;22.67;22.67;20.60;46.60;;;;;;5013595;28;8808;-60
2021/09/21 08:38:03;;;;;;;;;23.00;23.00;20.60;46.40;;;;;;5014485;28;8775;-61
2021/09/21 08:40:30;;;;;;;;;19.33;19.33;20.60;46.20;;;;;;5014558;28;8858;-61
2021/09/21 08:42:58;;;;;;;;;29.00;29.00;20.50;46.10;;;;;;5014558;28;8776;-61
2021/09/21 08:45:24;;;;;;;;;22.33;22.33;20.60;46.10;;;;;;5013094;28;9513;-61
2021/09/21 08:47:50;;;;;;;;;22.00;22.00;20.40;46.10;;;;;;5014543;28;8772;-61
2021/09/21 08:50:16;;;;;;;;;24.00;24.00;20.40;46.60;;;;;;5014186;28;8788;-61
2021/09/21 08:52:42;;;;;;;;;21.00;21.00;20.60;46.70;;;;;;5013288;28;8792;-61
2021/09/21 08:55:11;;;;;;;;;22.67;22.67;20.70;46.40;;;;;;5014220;28;9448;-61
2021/09/21 08:57:38;;;;;;;;;21.67;21.67;20.80;46.10;;;;;;5014472;28;9438;-61
2021/09/21 09:00:23;;;;;;;;;24.33;24.33;20.90;46.20;;;;;;5015478;28;8795;-61
2021/09/21 09:02:49;;;;;;;;;22.67;22.67;20.80;45.90;;;;;;5017848;28;8815;-60
2021/09/21 09:05:15;;;;;;;;;20.33;20.33;20.90;45.80;;;;;;5017684;28;8982;-60
2021/09/21 09:07:49;;;;;;;;;20.33;20.00;21.00;45.60;;;;;;5017072;28;8807;-61
2021/09/21 09:10:16;;;;;;;;;21.33;21.33;20.90;45.40;;;;;;5018129;28;9472;-61
2021/09/21 09:12:42;;;;;;;;;22.67;22.67;20.90;45.40;;;;;;5017929;28;8792;-61
2021/09/21 09:15:13;;;;;;;;;25.00;25.00;21.00;44.70;;;;;;5018056;28;8788;-61
2021/09/21 09:17:51;;;;;;;;;22.33;22.33;21.10;45.10;;;;;;5017196;28;8796;-61
2021/09/21 09:20:17;;;;;;;;;21.00;21.00;21.10;45.00;;;;;;5017753;28;8792;-61
2021/09/21 09:22:42;;;;;;;;;18.00;18.00;21.20;44.40;;;;;;5017643;28;8788;-61
2021/09/21 09:25:08;;;;;;;;;19.00;19.00;21.00;44.10;;;;;;5017359;28;8832;-61
2021/09/21 09:27:36;;;;;;;;;18.00;18.00;21.10;44.90;;;;;;5016638;28;8970;-60
2021/09/21 09:30:06;;;;;;;;;20.33;20.33;21.20;44.00;;;;;;5017508;28;8783;-61
2021/09/21 09:32:43;;;;;;;;;20.33;20.33;21.30;43.40;;;;;;5017688;28;9523;-60
2021/09/21 09:35:10;;;;;;;;;20.00;20.00;21.20;43.00;;;;;;5017772;28;8820;-61
2021/09/21 09:37:40;;;;;;;;;16.00;16.00;21.30;42.90;;;;;;5016501;28;8974;-61
2021/09/21 09:40:10;;;;;;;;;20.33;20.33;21.40;42.70;;;;;;5017496;28;8784;-61
2021/09/21 09:42:43;;;;;;;;;20.33;20.33;21.50;42.70;;;;;;5017191;28;8768;-61
2021/09/21 09:45:09;;;;;;;;;19.00;19.00;21.60;42.40;;;;;;5016475;28;8847;-60
2021/09/21 09:47:49;;;;;;;;;20.67;20.67;21.60;42.80;;;;;;5017602;28;8791;-60
2021/09/21 09:50:17;;;;;;;;;20.00;20.00;21.80;41.20;;;;;;5017409;28;8779;-60
2021/09/21 09:52:43;;;;;;;;;24.00;24.00;21.90;41.00;;;;;;5017117;28;8796;-61
2021/09/21 09:55:09;;;;;;;;;20.67;20.67;22.00;40.80;;;;;;5015818;28;8788;-60
2021/09/21 09:57:40;;;;;;;;;17.33;17.33;22.10;40.30;;;;;;4997401;28;8793;-61
2021/09/21 10:00:07;;;;;;;;;21.00;21.00;22.20;40.30;;;;;;4997389;28;8813;-60
2021/09/21 10:02:34;;;;;;;;;21.00;21.00;22.40;39.70;;;;;;4997496;28;8771;-61
2021/09/21 10:05:00;;;;;;;;;14.67;14.67;22.50;39.20;;;;;;4997695;28;9001;-60
2021/09/21 10:07:26;;;;;;;;;15.00;15.00;22.60;39.70;;;;;;5016795;28;8782;-61
2021/09/21 10:09:53;;;;;;;;;17.33;17.33;22.70;38.10;;;;;;5016817;28;8764;-61
2021/09/21 10:12:20;;;;;;;;;17.67;17.67;22.80;38.50;;;;;;5015988;28;8869;-61
2021/09/21 10:14:46;;;;;;;;;19.67;19.67;22.90;38.50;;;;;;5015646;28;8795;-60
2021/09/21 10:17:20;;;;;;;;;15.00;15.00;23.00;37.80;;;;;;5016963;28;8792;-61
2021/09/21 10:19:54;;;;;;;;;21.00;21.00;23.00;37.40;;;;;;5016705;28;8906;-61
2021/09/21 10:22:34;;;;;;;;;17.33;17.33;23.10;37.50;;;;;;5016591;28;8800;-61
2021/09/21 10:25:06;;;;;;;;;21.00;21.00;23.20;37.30;;;;;;5015226;28;8842;-61
2021/09/21 10:27:36;;;;;;;;;20.00;20.00;23.10;37.10;;;;;;5016436;28;8902;-61
2021/09/21 10:30:08;;;;;;;;;16.67;16.67;23.10;36.40;;;;;;5016321;28;8796;-61
2021/09/21 10:32:45;;;;;;;;;18.00;18.00;23.20;36.30;;;;;;5016387;28;8776;-61
2021/09/21 10:35:14;;;;;;;;;18.00;18.00;23.40;36.10;;;;;;5014446;28;9601;-61
2021/09/21 10:37:40;;;;;;;;;17.33;17.33;23.60;35.20;;;;;;5016318;28;8760;-61
2021/09/21 10:40:08;;;;;;;;;18.00;18.00;23.90;35.10;;;;;;5015834;28;8768;-60
2021/09/21 10:42:34;;;;;;;;;12.67;12.67;24.00;32.00;;;;;;5015090;28;8780;-60
2021/09/21 10:45:03;;;;;;;;;16.33;16.33;24.50;32.20;;;;;;5015241;28;8836;-60
2021/09/21 10:47:37;;;;;;;;;16.67;16.67;25.00;31.20;;;;;;5016285;28;9504;-60
2021/09/21 10:50:15;;;;;;;;;16.67;16.67;25.20;31.60;;;;;;5015968;28;8796;-60
2021/09/21 10:52:41;;;;;;;;;17.67;17.67;25.40;30.30;;;;;;5015795;28;8756;-60
2021/09/21 10:55:12;;;;;;;;;17.33;17.33;25.20;30.10;;;;;;5014690;28;9453;-60
2021/09/21 10:57:45;;;;;;;;;18.33;18.33;25.10;30.30;;;;;;5015657;28;8792;-60
2021/09/21 11:00:16;;;;;;;;;14.67;14.67;25.10;29.60;;;;;;5016050;28;9434;-60
2021/09/21 11:02:46;;;;;;;;;21.33;21.00;25.10;30.00;;;;;;5015932;28;8883;-60
2021/09/21 11:05:18;;;;;;;;;17.00;17.00;25.20;29.50;;;;;;5014390;28;8839;-60
2021/09/21 11:08:01;;;;;;;;;16.33;16.33;25.70;29.60;;;;;;5015621;28;8788;-60
2021/09/21 11:10:38;;;;;;;;;14.33;14.33;26.30;29.20;;;;;;5015667;28;8779;-60
2021/09/21 11:13:13;;;;;;;;;15.67;15.67;26.10;28.80;;;;;;5015882;28;8771;-60
2021/09/21 11:15:40;;;;;;;;;16.00;16.00;26.30;28.30;;;;;;5014492;28;8850;-60
2021/09/21 11:18:10;;;;;;;;;14.00;14.00;26.60;27.90;;;;;;5015398;28;11617;-61
2021/09/21 11:20:47;;;;;;;;;15.33;15.33;26.90;27.90;;;;;;5015188;28;11514;-60
2021/09/21 11:23:13;;;;;;;;;17.67;17.67;26.90;26.90;;;;;;5015054;28;11526;-60
2021/09/21 11:25:39;;;;;;;;;16.33;16.33;27.30;27.30;;;;;;5014615;28;8851;-61
2021/09/21 11:28:06;;;;;;;;;11.00;11.00;27.20;27.50;;;;;;5015393;28;11604;-62
2021/09/21 11:30:32;;;;;;;;;15.00;15.00;27.30;27.30;;;;;;5015432;28;11501;-61
2021/09/21 11:32:58;;;;;;;;;12.67;12.67;27.70;26.70;;;;;;5015348;28;11511;-61
2021/09/21 11:35:23;;;;;;;;;14.00;14.00;28.10;25.70;;;;;;5014316;28;8812;-61
2021/09/21 11:37:52;;;;;;;;;11.75;11.75;27.70;23.60;;;;;;5015138;28;8780;-61
2021/09/21 11:40:29;;;;;;;;;11.00;11.00;27.20;24.10;;;;;;5015119;28;8850;-60
2021/09/21 11:42:57;;;;;;;;;16.00;16.00;26.70;24.70;;;;;;5015069;28;11503;-61
2021/09/21 11:45:24;;;;;;;;;10.67;10.67;26.30;25.00;;;;;;5013918;28;11569;-61
2021/09/21 11:47:50;;;;;;;;;7.67;7.67;26.00;25.60;;;;;;5014949;28;11522;-61
2021/09/21 11:50:27;;;;;;;;;8.33;8.33;25.60;25.20;;;;;;5015268;28;11452;-61
2021/09/21 11:52:58;;;;;;;;;10.33;10.33;25.20;25.30;;;;;;5015110;28;11480;-61
2021/09/21 11:55:28;;;;;;;;;10.00;10.00;25.00;25.70;;;;;;5014941;28;11522;-61
2021/09/21 11:57:55;;;;;;;;;10.00;10.00;24.70;25.70;;;;;;5012350;28;11598;-61
2021/09/21 12:00:28;;;;;;;;;9.33;9.33;24.50;25.50;;;;;;5014961;28;8882;-61
2021/09/21 12:02:57;;;;;;;;;10.67;10.67;24.40;25.80;;;;;;5014594;28;11482;-61
2021/09/21 12:05:24;;;;;;;;;8.00;8.00;24.20;25.70;;;;;;5014367;28;11611;-61
2021/09/21 12:07:51;;;;;;;;;7.00;7.00;24.10;25.20;;;;;;5013565;28;11492;-62
2021/09/21 12:10:17;;;;;;;;;8.67;8.67;24.00;25.20;;;;;;4994919;28;11506;-61
2021/09/21 12:12:44;;;;;;;;;8.67;8.67;23.80;25.70;;;;;;5010890;28;11569;-63
2021/09/21 12:15:12;;;;;;;;;11.33;11.33;23.80;25.30;;;;;;4995259;28;8798;-60
2021/09/21 12:17:45;;;;;;;;;8.00;8.00;23.90;25.40;;;;;;4994946;28;8789;-61
2021/09/21 12:20:12;;;;;;;;;8.33;8.33;23.80;25.30;;;;;;4994939;28;8771;-62
2021/09/21 12:22:48;;;;;;;;;8.67;8.67;23.70;25.00;;;;;;4994979;28;8762;-60
2021/09/21 12:25:15;;;;;;;;;7.67;7.67;23.80;25.40;;;;;;5014719;28;8824;-61
2021/09/21 12:27:40;;;;;;;;;3.33;3.33;24.10;25.70;;;;;;5014571;28;8898;-60
2021/09/21 12:30:09;;;;;;;;;10.00;10.00;24.70;26.50;;;;;;5014427;28;8910;-61
2021/09/21 12:32:36;;;;;;;;;10.00;10.00;25.10;25.20;;;;;;5014628;28;8774;-60
2021/09/21 12:35:08;;;;;;;;;9.33;9.33;25.40;25.00;;;;;;5015621;28;8830;-60
2021/09/21 12:37:41;;;;;;;;;7.00;7.00;25.60;24.30;;;;;;5018701;28;11461;-60
2021/09/21 12:40:08;;;;;;;;;10.00;10.00;25.70;23.40;;;;;;5018392;28;11544;-59
2021/09/21 12:42:40;;;;;;;;;8.00;8.00;26.30;23.40;;;;;;5018638;28;11484;-61
2021/09/21 12:45:08;;;;;;;;;8.50;8.50;26.30;23.10;;;;;;5017534;28;11520;-61
2021/09/21 12:47:37;;;;;;;;;7.00;7.00;26.00;23.20;;;;;;5022034;28;11469;-61
2021/09/21 12:50:11;;;;;;;;;7.67;7.67;25.60;23.50;;;;;;5018303;28;11468;-60
2021/09/21 12:52:37;;;;;;;;;6.67;6.67;25.10;24.00;;;;;;5026220;28;11583;-61
2021/09/21 12:55:03;;;;;;;;;8.33;8.33;24.60;24.10;;;;;;5019200;28;11581;-60